Time;durP1;ratioP1;P1;durP2;ratioP2;P2;SDS_P1;SDS_P2;PMS_P1;PMS_P2;Temp;Humidity;BMP_temperature;BMP_pressure;BME280_temperature;BME280_humidity;BME280_pressure;Samples;Min_cycle;Max_cycle;Signal;HPM_P1;HPM_P2
2024/03/17 00:01:08;;;;;;;;;;;;;;;;;;5051530;28;4864;-67
2024/03/17 00:03:33;;;;;;;;;;;;;;;;;;5040803;28;4898;-67
2024/03/17 00:05:59;;;;;;;;;;;;;;;;;;5046391;28;5167;-68
2024/03/17 00:08:26;;;;;;;;;;;;;;;;;;5048142;28;5235;-69
2024/03/17 00:10:55;;;;;;;;;;;;;;;;;;5051152;28;4728;-67
2024/03/17 00:13:21;;;;;;;;;;;;;;;;;;5049457;28;3679;-68
2024/03/17 00:15:47;;;;;;;;;;;;;;;;;;5062314;28;5019;-67
2024/03/17 00:18:12;;;;;;;;;;;;;;;;;;5048226;28;4462;-67
2024/03/17 00:20:41;;;;;;;;;;;;;;;;;;5044939;28;4927;-67
2024/03/17 00:23:07;;;;;;;;;;;;;;;;;;5050609;28;4670;-67
2024/03/17 00:25:33;;;;;;;;;;;;;;;;;;5050252;28;3365;-67
2024/03/17 00:27:59;;;;;;;;;;;;;;;;;;5050976;28;4847;-68
2024/03/17 00:30:25;;;;;;;;;;;;;;;;;;5052992;28;5286;-67
2024/03/17 00:32:50;;;;;;;;;;;;;;;;;;5046192;28;5190;-69
2024/03/17 00:35:20;;;;;;;;;;;;;;;;;;5044048;28;5089;-67
2024/03/17 00:37:46;;;;;;;;;;;;;;;;;;5051680;28;5084;-65
2024/03/17 00:40:11;;;;;;;;;;;;;;;;;;5050903;28;3531;-68
2024/03/17 00:42:37;;;;;;;;;;;;;;;;;;5028788;28;5239;-67
2024/03/17 00:45:05;;;;;;;;;;;;;;;;;;5049252;28;4885;-68
2024/03/17 00:47:30;;;;;;;;;;;;;;;;;;5044921;28;5073;-68
2024/03/17 00:49:56;;;;;;;;;;;;;;;;;;5044186;28;4731;-66
2024/03/17 00:52:21;;;;;;;;;;;;;;;;;;5032752;28;3636;-67
2024/03/17 00:54:47;;;;;;;;;;;;;;;;;;5056060;28;5071;-67
2024/03/17 00:57:12;;;;;;;;;;;;;;;;;;5051055;28;5188;-67
2024/03/17 00:59:38;;;;;;;;;;;;;;;;;;5028805;28;5068;-66
2024/03/17 01:02:03;;;;;;;;;;;;;;;;;;5050766;28;5177;-67
2024/03/17 01:04:29;;;;;;;;;;;;;;;;;;5050082;28;3170;-67
2024/03/17 01:06:54;;;;;;;;;;;;;;;;;;5043919;28;4403;-68
2024/03/17 01:09:19;;;;;;;;;;;;;;;;;;5047482;28;5105;-67
2024/03/17 01:11:45;;;;;;;;;;;;;;;;;;5047315;28;4584;-67
2024/03/17 01:14:10;;;;;;;;;;;;;;;;;;5048646;28;4951;-69
2024/03/17 01:16:36;;;;;;;;;;;;;;;;;;5049264;28;3607;-67
2024/03/17 01:19:01;;;;;;;;;;;;;;;;;;5048448;28;4623;-69
2024/03/17 01:21:26;;;;;;;;;;;;;;;;;;5042000;28;4993;-69
2024/03/17 01:23:52;;;;;;;;;;;;;;;;;;5049402;28;5003;-67
2024/03/17 01:26:18;;;;;;;;;;;;;;;;;;5048810;28;5131;-68
2024/03/17 01:28:43;;;;;;;;;;;;;;;;;;5049798;28;3480;-67
2024/03/17 01:31:09;;;;;;;;;;;;;;;;;;5047093;28;4909;-68
2024/03/17 01:33:34;;;;;;;;;;;;;;;;;;5046638;28;4997;-67
2024/03/17 01:36:00;;;;;;;;;;;;;;;;;;5049494;28;4487;-66
2024/03/17 01:38:25;;;;;;;;;;;;;;;;;;5045952;28;5333;-67
2024/03/17 01:40:51;;;;;;;;;;;;;;;;;;5048608;28;4674;-67
2024/03/17 01:43:17;;;;;;;;;;;;;;;;;;5054010;28;3827;-67
2024/03/17 01:45:43;;;;;;;;;;;;;;;;;;5050176;28;5274;-67
2024/03/17 01:48:13;;;;;;;;;;;;;;;;;;5050961;28;5080;-67
2024/03/17 01:50:38;;;;;;;;;;;;;;;;;;5046630;28;5150;-69
2024/03/17 01:53:05;;;;;;;;;;;;;;;;;;5050331;28;4491;-66
2024/03/17 01:55:31;;;;;;;;;;;;;;;;;;5067678;28;3252;-67
2024/03/17 01:57:57;;;;;;;;;;;;;;;;;;5065483;28;5059;-67
2024/03/17 02:00:23;;;;;;;;;;;;;;;;;;5046507;28;4966;-67
2024/03/17 02:02:48;;;;;;;;;;;;;;;;;;5052904;28;5102;-67
2024/03/17 02:05:13;;;;;;;;;;;;;;;;;;5052827;28;5336;-67
2024/03/17 02:07:39;;;;;;;;;;;;;;;;;;5043863;28;3355;-67
2024/03/17 02:10:05;;;;;;;;;;;;;;;;;;5033755;28;4553;-66
2024/03/17 02:12:31;;;;;;;;;;;;;;;;;;5044322;28;5196;-66
2024/03/17 02:14:57;;;;;;;;;;;;;;;;;;5055772;28;5083;-69
2024/03/17 02:17:23;;;;;;;;;;;;;;;;;;5037513;28;5073;-67
2024/03/17 02:19:48;;;;;;;;;;;;;;;;;;5039640;28;5063;-69
2024/03/17 02:22:15;;;;;;;;;;;;;;;;;;5046892;28;2097;-66
2024/03/17 02:24:40;;;;;;;;;;;;;;;;;;5025893;28;5058;-66
2024/03/17 02:27:06;;;;;;;;;;;;;;;;;;5041992;28;5091;-67
2024/03/17 02:29:31;;;;;;;;;;;;;;;;;;5043350;28;5379;-67
2024/03/17 02:31:56;;;;;;;;;;;;;;;;;;5037662;28;4523;-67
2024/03/17 02:34:22;;;;;;;;;;;;;;;;;;5039868;28;3673;-66
2024/03/17 02:36:47;;;;;;;;;;;;;;;;;;5034397;28;4996;-68
2024/03/17 02:39:33;;;;;;;;;;;;;;;;;;5039305;28;5219;-66
2024/03/17 02:42:08;;;;;;;;;;;;;;;;;;5034797;28;4603;-67
2024/03/17 02:44:34;;;;;;;;;;;;;;;;;;5033045;28;5055;-67
2024/03/17 02:46:59;;;;;;;;;;;;;;;;;;5035988;28;4489;-66
2024/03/17 02:49:26;;;;;;;;;;;;;;;;;;5042331;28;3471;-67
2024/03/17 02:51:52;;;;;;;;;;;;;;;;;;5038595;28;5076;-66
2024/03/17 02:54:17;;;;;;;;;;;;;;;;;;5036846;28;5082;-66
2024/03/17 02:56:42;;;;;;;;;;;;;;;;;;5022228;28;4721;-66
2024/03/17 02:59:08;;;;;;;;;;;;;;;;;;5040237;28;5190;-67
2024/03/17 03:01:34;;;;;;;;;;;;;;;;;;5060441;28;3303;-66
2024/03/17 03:03:59;;;;;;;;;;;;;;;;;;5040471;28;5042;-66
2024/03/17 03:06:25;;;;;;;;;;;;;;;;;;5041101;28;5034;-66
2024/03/17 03:08:50;;;;;;;;;;;;;;;;;;5051190;28;5106;-66
2024/03/17 03:11:16;;;;;;;;;;;;;;;;;;5051746;28;5073;-68
2024/03/17 03:13:41;;;;;;;;;;;;;;;;;;5057874;28;3732;-66
2024/03/17 03:16:08;;;;;;;;;;;;;;;;;;5042830;28;5202;-66
2024/03/17 03:18:33;;;;;;;;;;;;;;;;;;5062024;28;4960;-66
2024/03/17 03:20:59;;;;;;;;;;;;;;;;;;5049276;28;5163;-67
2024/03/17 03:23:24;;;;;;;;;;;;;;;;;;5058338;28;5195;-67
2024/03/17 03:25:54;;;;;;;;;;;;;;;;;;5053768;28;4582;-66
2024/03/17 03:28:19;;;;;;;;;;;;;;;;;;5050761;28;3379;-66
2024/03/17 03:30:45;;;;;;;;;;;;;;;;;;5059499;28;5288;-66
2024/03/17 03:33:10;;;;;;;;;;;;;;;;;;5052134;28;5044;-66
2024/03/17 03:35:35;;;;;;;;;;;;;;;;;;5051594;28;5047;-66
2024/03/17 03:38:02;;;;;;;;;;;;;;;;;;5058521;28;5116;-68
2024/03/17 03:40:28;;;;;;;;;;;;;;;;;;5055021;28;3260;-66
2024/03/17 03:42:53;;;;;;;;;;;;;;;;;;5030943;28;4692;-66
2024/03/17 03:45:18;;;;;;;;;;;;;;;;;;5054200;28;4992;-67
2024/03/17 03:47:44;;;;;;;;;;;;;;;;;;5050374;28;5248;-67
2024/03/17 03:50:09;;;;;;;;;;;;;;;;;;5047451;28;5412;-68
2024/03/17 03:52:35;;;;;;;;;;;;;;;;;;5053965;28;3249;-66
2024/03/17 03:55:01;;;;;;;;;;;;;;;;;;5045424;28;4992;-67
2024/03/17 03:57:29;;;;;;;;;;;;;;;;;;5069068;28;4634;-67
2024/03/17 03:59:55;;;;;;;;;;;;;;;;;;5055010;28;4953;-67
2024/03/17 04:02:20;;;;;;;;;;;;;;;;;;5051069;28;4940;-66
2024/03/17 04:04:46;;;;;;;;;;;;;;;;;;5055427;28;5091;-68
2024/03/17 04:07:12;;;;;;;;;;;;;;;;;;5046700;28;3498;-67
2024/03/17 04:09:37;;;;;;;;;;;;;;;;;;5023575;28;4511;-67
2024/03/17 04:12:03;;;;;;;;;;;;;;;;;;5029587;28;4984;-66
2024/03/17 04:14:30;;;;;;;;;;;;;;;;;;5025943;28;5010;-67
2024/03/17 04:16:55;;;;;;;;;;;;;;;;;;5028180;28;5209;-68
2024/03/17 04:19:21;;;;;;;;;;;;;;;;;;5025544;28;3729;-67
2024/03/17 04:21:46;;;;;;;;;;;;;;;;;;5027533;28;4489;-67
2024/03/17 04:24:12;;;;;;;;;;;;;;;;;;5023248;28;4590;-66
2024/03/17 04:26:38;;;;;;;;;;;;;;;;;;5025562;28;5197;-66
2024/03/17 04:29:05;;;;;;;;;;;;;;;;;;5025472;28;4513;-67
2024/03/17 04:31:30;;;;;;;;;;;;;;;;;;5024129;28;3458;-67
2024/03/17 04:33:56;;;;;;;;;;;;;;;;;;5042820;28;4616;-67
2024/03/17 04:36:22;;;;;;;;;;;;;;;;;;5025532;28;5280;-67
2024/03/17 04:38:47;;;;;;;;;;;;;;;;;;5026045;28;5015;-66
2024/03/17 04:41:16;;;;;;;;;;;;;;;;;;5023798;28;5090;-68
2024/03/17 04:43:41;;;;;;;;;;;;;;;;;;5023421;28;3734;-66
2024/03/17 04:46:09;;;;;;;;;;;;;;;;;;5029578;28;5119;-66
2024/03/17 04:48:34;;;;;;;;;;;;;;;;;;5026275;28;4891;-66
2024/03/17 04:51:00;;;;;;;;;;;;;;;;;;5022382;28;5173;-66
2024/03/17 04:53:25;;;;;;;;;;;;;;;;;;5022091;28;5512;-65
2024/03/17 04:56:17;;;;;;;;;;;;;;;;;;5034714;28;5201;-68
2024/03/17 04:58:43;;;;;;;;;;;;;;;;;;5025700;28;3315;-67
2024/03/17 05:01:09;;;;;;;;;;;;;;;;;;5018314;28;4992;-66
2024/03/17 05:03:34;;;;;;;;;;;;;;;;;;5022317;28;4916;-67
2024/03/17 05:06:00;;;;;;;;;;;;;;;;;;5020289;28;5069;-65
2024/03/17 05:08:26;;;;;;;;;;;;;;;;;;5030929;28;5148;-70
2024/03/17 05:10:55;;;;;;;;;;;;;;;;;;5045670;28;5110;-66
2024/03/17 05:13:21;;;;;;;;;;;;;;;;;;5048993;28;3377;-67
2024/03/17 05:15:46;;;;;;;;;;;;;;;;;;5055705;28;5307;-66
2024/03/17 05:18:11;;;;;;;;;;;;;;;;;;5052924;28;4723;-66
2024/03/17 05:20:37;;;;;;;;;;;;;;;;;;5053473;28;4518;-67
2024/03/17 05:23:02;;;;;;;;;;;;;;;;;;5045936;28;4482;-66
2024/03/17 05:25:28;;;;;;;;;;;;;;;;;;5050659;28;1071;-65
2024/03/17 05:27:53;;;;;;;;;;;;;;;;;;5060302;28;5051;-66
2024/03/17 05:30:18;;;;;;;;;;;;;;;;;;5052216;28;4993;-67
2024/03/17 05:32:43;;;;;;;;;;;;;;;;;;5047589;28;5066;-68
2024/03/17 05:35:09;;;;;;;;;;;;;;;;;;5041795;28;5153;-66
2024/03/17 05:37:35;;;;;;;;;;;;;;;;;;5044401;28;3476;-66
2024/03/17 05:40:00;;;;;;;;;;;;;;;;;;5044060;28;5192;-68
2024/03/17 05:42:26;;;;;;;;;;;;;;;;;;5040715;28;4988;-65
2024/03/17 05:44:53;;;;;;;;;;;;;;;;;;5046585;28;5084;-66
2024/03/17 05:47:18;;;;;;;;;;;;;;;;;;5036621;28;5035;-69
2024/03/17 05:49:44;;;;;;;;;;;;;;;;;;5050642;28;3346;-66
2024/03/17 05:52:10;;;;;;;;;;;;;;;;;;5039023;28;4391;-66
2024/03/17 05:54:35;;;;;;;;;;;;;;;;;;5042157;28;4927;-66
2024/03/17 05:57:04;;;;;;;;;;;;;;;;;;5040348;28;5113;-67
2024/03/17 05:59:29;;;;;;;;;;;;;;;;;;5027527;28;4523;-65
2024/03/17 06:01:55;;;;;;;;;;;;;;;;;;5072436;28;4635;-69
2024/03/17 06:04:20;;;;;;;;;;;;;;;;;;5043464;28;3600;-66
2024/03/17 06:06:45;;;;;;;;;;;;;;;;;;5047730;28;4926;-65
2024/03/17 06:09:11;;;;;;;;;;;;;;;;;;5041995;28;5108;-69
2024/03/17 06:11:36;;;;;;;;;;;;;;;;;;5037351;28;4682;-66
2024/03/17 06:14:04;;;;;;;;;;;;;;;;;;5051578;28;4669;-64
2024/03/17 06:16:30;;;;;;;;;;;;;;;;;;5046222;28;3740;-68
2024/03/17 06:18:56;;;;;;;;;;;;;;;;;;5041977;28;5155;-66
2024/03/17 06:21:21;;;;;;;;;;;;;;;;;;5040276;28;5106;-66
2024/03/17 06:23:46;;;;;;;;;;;;;;;;;;5041060;28;4489;-67
2024/03/17 06:26:12;;;;;;;;;;;;;;;;;;5031266;28;4517;-64
2024/03/17 06:28:37;;;;;;;;;;;;;;;;;;5042184;28;3372;-65
2024/03/17 06:31:07;;;;;;;;;;;;;;;;;;5043791;28;5016;-64
2024/03/17 06:33:32;;;;;;;;;;;;;;;;;;5044273;28;4627;-63
2024/03/17 06:35:57;;;;;;;;;;;;;;;;;;5040880;28;5317;-63
2024/03/17 06:38:23;;;;;;;;;;;;;;;;;;5039948;28;5025;-64
2024/03/17 06:40:50;;;;;;;;;;;;;;;;;;5040762;28;4761;-64
2024/03/17 06:43:15;;;;;;;;;;;;;;;;;;5047969;28;3675;-63
2024/03/17 06:45:41;;;;;;;;;;;;;;;;;;5047916;28;4863;-66
2024/03/17 06:48:06;;;;;;;;;;;;;;;;;;5046064;28;4638;-65
2024/03/17 06:50:32;;;;;;;;;;;;;;;;;;5040297;28;4981;-65
2024/03/17 06:52:57;;;;;;;;;;;;;;;;;;5043605;28;4549;-66
2024/03/17 06:55:24;;;;;;;;;;;;;;;;;;5045531;28;3473;-65
2024/03/17 06:57:49;;;;;;;;;;;;;;;;;;5040947;28;4530;-65
2024/03/17 07:00:16;;;;;;;;;;;;;;;;;;5040569;28;5160;-63
2024/03/17 07:02:43;;;;;;;;;;;;;;;;;;5054398;28;5129;-72
2024/03/17 07:05:14;;;;;;;;;;;;;;;;;;5039209;28;5558;-66
2024/03/17 07:07:40;;;;;;;;;;;;;;;;;;5047169;28;3657;-77
2024/03/17 07:10:05;;;;;;;;;;;;;;;;;;5011963;28;5110;-73
2024/03/17 07:12:30;;;;;;;;;;;;;;;;;;5036976;28;4544;-75
2024/03/17 07:14:56;;;;;;;;;;;;;;;;;;5040283;28;5106;-64
2024/03/17 07:17:22;;;;;;;;;;;;;;;;;;5037704;28;4755;-68
2024/03/17 07:19:49;;;;;;;;;;;;;;;;;;5034603;28;4695;-70
2024/03/17 07:22:14;;;;;;;;;;;;;;;;;;5055456;28;3342;-64
2024/03/17 07:24:40;;;;;;;;;;;;;;;;;;5041096;28;4943;-64
2024/03/17 07:27:08;;;;;;;;;;;;;;;;;;5022466;28;5159;-63
2024/03/17 07:29:34;;;;;;;;;;;;;;;;;;5041826;28;4693;-65
2024/03/17 07:31:59;;;;;;;;;;;;;;;;;;5044531;28;5264;-65
2024/03/17 07:34:24;;;;;;;;;;;;;;;;;;5046586;28;3673;-66
2024/03/17 07:36:50;;;;;;;;;;;;;;;;;;5038033;28;5127;-70
2024/03/17 07:39:16;;;;;;;;;;;;;;;;;;5002720;28;4586;-75
2024/03/17 07:41:41;;;;;;;;;;;;;;;;;;5042483;28;5134;-75
2024/03/17 07:44:07;;;;;;;;;;;;;;;;;;5041400;28;4726;-69
2024/03/17 07:46:32;;;;;;;;;;;;;;;;;;5043371;28;3671;-71
2024/03/17 07:48:58;;;;;;;;;;;;;;;;;;5045185;28;4462;-73
2024/03/17 07:51:23;;;;;;;;;;;;;;;;;;5047953;28;5130;-70
2024/03/17 07:53:48;;;;;;;;;;;;;;;;;;5023654;28;5050;-73
2024/03/17 07:56:15;;;;;;;;;;;;;;;;;;5049961;28;4623;-74
2024/03/17 07:58:40;;;;;;;;;;;;;;;;;;5050262;28;1651;-73
2024/03/17 08:01:07;;;;;;;;;;;;;;;;;;5044670;28;5035;-69
2024/03/17 08:03:33;;;;;;;;;;;;;;;;;;5043311;28;5437;-71
2024/03/17 08:05:59;;;;;;;;;;;;;;;;;;5042274;28;4650;-75
2024/03/17 08:08:24;;;;;;;;;;;;;;;;;;5051769;28;5122;-69
2024/03/17 08:10:50;;;;;;;;;;;;;;;;;;5044920;28;4614;-77
2024/03/17 08:13:19;;;;;;;;;;;;;;;;;;5055693;28;3440;-75
2024/03/17 08:15:45;;;;;;;;;;;;;;;;;;5056206;28;5123;-72
2024/03/17 08:18:11;;;;;;;;;;;;;;;;;;5045425;28;5111;-76
2024/03/17 08:20:43;;;;;;;;;;;;;;;;;;5055275;28;4715;-76
2024/03/17 08:23:09;;;;;;;;;;;;;;;;;;5056332;28;4562;-78
2024/03/17 08:25:34;;;;;;;;;;;;;;;;;;5062743;28;3555;-77
2024/03/17 08:28:00;;;;;;;;;;;;;;;;;;5056676;28;5287;-77
2024/03/17 08:30:25;;;;;;;;;;;;;;;;;;5063365;28;5145;-72
2024/03/17 08:32:50;;;;;;;;;;;;;;;;;;5049413;28;4683;-71
2024/03/17 08:35:16;;;;;;;;;;;;;;;;;;5029302;28;5098;-73
2024/03/17 08:37:41;;;;;;;;;;;;;;;;;;5054562;28;3293;-71
2024/03/17 08:40:07;;;;;;;;;;;;;;;;;;5034563;28;4533;-68
2024/03/17 08:42:32;;;;;;;;;;;;;;;;;;5039559;28;5157;-72
2024/03/17 08:44:58;;;;;;;;;;;;;;;;;;5050314;28;4780;-76
2024/03/17 08:47:23;;;;;;;;;;;;;;;;;;5044400;28;5098;-70
2024/03/17 08:49:51;;;;;;;;;;;;;;;;;;5055520;28;4924;-74
2024/03/17 08:52:17;;;;;;;;;;;;;;;;;;5039381;28;3439;-75
2024/03/17 08:54:45;;;;;;;;;;;;;;;;;;5060910;28;5086;-73
2024/03/17 08:57:11;;;;;;;;;;;;;;;;;;5049463;28;4686;-73
2024/03/17 08:59:36;;;;;;;;;;;;;;;;;;5043193;28;4552;-74
2024/03/17 09:02:03;;;;;;;;;;;;;;;;;;5045817;28;5025;-74
2024/03/17 09:04:29;;;;;;;;;;;;;;;;;;5049679;28;3487;-75
2024/03/17 09:06:56;;;;;;;;;;;;;;;;;;5038911;28;5114;-75
2024/03/17 09:09:21;;;;;;;;;;;;;;;;;;5038998;28;5188;-78
2024/03/17 09:11:47;;;;;;;;;;;;;;;;;;5034531;28;4831;-57
2024/03/17 09:14:12;;;;;;;;;;;;;;;;;;5045974;28;5068;-62
2024/03/17 09:16:37;;;;;;;;;;;;;;;;;;5048875;28;3415;-63
2024/03/17 09:19:03;;;;;;;;;;;;;;;;;;5043885;28;4710;-63
2024/03/17 09:21:28;;;;;;;;;;;;;;;;;;5039908;28;4912;-63
2024/03/17 09:23:53;;;;;;;;;;;;;;;;;;5032063;28;5095;-64
2024/03/17 09:26:19;;;;;;;;;;;;;;;;;;5035860;28;4522;-63
2024/03/17 09:28:44;;;;;;;;;;;;;;;;;;5038875;28;3517;-63
2024/03/17 09:31:11;;;;;;;;;;;;;;;;;;5038910;28;5022;-63
2024/03/17 09:33:38;;;;;;;;;;;;;;;;;;5020492;28;5501;-62
2024/03/17 09:36:05;;;;;;;;;;;;;;;;;;5042883;28;5197;-62
2024/03/17 09:38:31;;;;;;;;;;;;;;;;;;5038012;28;4710;-62
2024/03/17 09:41:02;;;;;;;;;;;;;;;;;;5038298;28;6146;-63
2024/03/17 09:43:28;;;;;;;;;;;;;;;;;;5035074;28;3483;-63
2024/03/17 09:45:59;;;;;;;;;;;;;;;;;;5055290;28;5078;-63
2024/03/17 09:48:28;;;;;;;;;;;;;;;;;;5043969;28;5189;-63
2024/03/17 09:50:57;;;;;;;;;;;;;;;;;;5054171;28;5090;-63
2024/03/17 09:53:25;;;;;;;;;;;;;;;;;;5064054;28;4528;-63
2024/03/17 09:55:53;;;;;;;;;;;;;;;;;;5049791;28;4543;-62
2024/03/17 09:58:19;;;;;;;;;;;;;;;;;;5056820;28;3549;-63
2024/03/17 10:00:44;;;;;;;;;;;;;;;;;;5034721;28;5199;-63
2024/03/17 10:03:09;;;;;;;;;;;;;;;;;;5043089;28;4690;-62
2024/03/17 10:05:35;;;;;;;;;;;;;;;;;;5035718;28;4602;-62
2024/03/17 10:08:00;;;;;;;;;;;;;;;;;;5031597;28;4798;-63
2024/03/17 10:10:26;;;;;;;;;;;;;;;;;;5025163;28;3267;-62
2024/03/17 10:12:51;;;;;;;;;;;;;;;;;;5022913;28;4961;-62
2024/03/17 10:15:17;;;;;;;;;;;;;;;;;;5003490;28;4557;-63
2024/03/17 10:17:43;;;;;;;;;;;;;;;;;;5027342;28;5094;-63
2024/03/17 10:20:11;;;;;;;;;;;;;;;;;;5027271;28;5124;-63
2024/03/17 10:22:36;;;;;;;;;;;;;;;;;;5023725;28;1209;-63
2024/03/17 10:25:02;;;;;;;;;;;;;;;;;;5036715;28;4450;-63
2024/03/17 10:27:27;;;;;;;;;;;;;;;;;;5026172;28;4935;-62
2024/03/17 10:29:52;;;;;;;;;;;;;;;;;;5026310;28;5076;-63
2024/03/17 10:32:18;;;;;;;;;;;;;;;;;;5023327;28;5074;-63
2024/03/17 10:34:43;;;;;;;;;;;;;;;;;;5003816;28;3349;-63
2024/03/17 10:37:15;;;;;;;;;;;;;;;;;;5025074;28;4424;-63
2024/03/17 10:39:41;;;;;;;;;;;;;;;;;;5030426;28;5081;-63
2024/03/17 10:42:07;;;;;;;;;;;;;;;;;;5044748;28;4492;-63
2024/03/17 10:44:34;;;;;;;;;;;;;;;;;;5031143;28;4960;-63
2024/03/17 10:47:00;;;;;;;;;;;;;;;;;;5033938;28;5150;-63
2024/03/17 10:49:31;;;;;;;;;;;;;;;;;;5035596;28;1106;-63
2024/03/17 10:52:00;;;;;;;;;;;;;;;;;;5026204;28;5084;-63
2024/03/17 10:54:28;;;;;;;;;;;;;;;;;;5024380;28;4627;-62
2024/03/17 10:56:53;;;;;;;;;;;;;;;;;;5034894;28;4536;-63
2024/03/17 10:59:22;;;;;;;;;;;;;;;;;;5006198;28;4667;-63
2024/03/17 11:01:48;;;;;;;;;;;;;;;;;;5033515;28;5209;-62
2024/03/17 11:04:13;;;;;;;;;;;;;;;;;;5043595;28;3400;-62
2024/03/17 11:06:39;;;;;;;;;;;;;;;;;;5026900;28;4966;-63
2024/03/17 11:09:04;;;;;;;;;;;;;;;;;;5036465;28;5247;-63
2024/03/17 11:11:36;;;;;;;;;;;;;;;;;;5058744;28;5049;-62
2024/03/17 11:14:20;;;;;;;;;;;;;;;;;;5045377;28;5187;-62
2024/03/17 11:16:47;;;;;;;;;;;;;;;;;;5043680;28;5028;-62
2024/03/17 11:19:16;;;;;;;;;;;;;;;;;;5042516;28;3587;-62
2024/03/17 11:21:41;;;;;;;;;;;;;;;;;;5044704;28;4831;-62
2024/03/17 11:24:08;;;;;;;;;;;;;;;;;;5042008;28;4714;-62
2024/03/17 11:26:35;;;;;;;;;;;;;;;;;;5055558;28;4982;-62
2024/03/17 11:29:02;;;;;;;;;;;;;;;;;;5051338;28;5180;-63
2024/03/17 11:31:35;;;;;;;;;;;;;;;;;;5031829;28;3284;-63
2024/03/17 11:34:03;;;;;;;;;;;;;;;;;;5042164;28;5092;-63
2024/03/17 11:36:28;;;;;;;;;;;;;;;;;;5046056;28;4618;-63
2024/03/17 11:38:57;;;;;;;;;;;;;;;;;;5059791;28;5146;-64
2024/03/17 11:41:34;;;;;;;;;;;;;;;;;;5045901;28;5409;-63
2024/03/17 11:44:18;;;;;;;;;;;;;;;;;;5052179;28;5101;-63
2024/03/17 11:46:44;;;;;;;;;;;;;;;;;;5039421;28;3624;-63
2024/03/17 11:49:22;;;;;;;;;;;;;;;;;;5063837;28;5021;-63
2024/03/17 11:51:48;;;;;;;;;;;;;;;;;;5044687;28;4906;-64
2024/03/17 11:54:18;;;;;;;;;;;;;;;;;;5037957;28;4702;-62
2024/03/17 11:56:45;;;;;;;;;;;;;;;;;;5022120;28;5271;-63
2024/03/17 11:59:10;;;;;;;;;;;;;;;;;;5032411;28;5095;-63
2024/03/17 12:01:36;;;;;;;;;;;;;;;;;;5040602;28;3351;-62
2024/03/17 12:04:05;;;;;;;;;;;;;;;;;;5057078;28;4800;-63
2024/03/17 12:06:31;;;;;;;;;;;;;;;;;;5003709;28;4969;-62
2024/03/17 12:09:16;;;;;;;;;;;;;;;;;;5039090;28;4736;-63
2024/03/17 12:11:42;;;;;;;;;;;;;;;;;;5043747;28;4573;-62
2024/03/17 12:14:19;;;;;;;;;;;;;;;;;;5047316;28;5005;-62
2024/03/17 12:17:11;;;;;;;;;;;;;;;;;;5023976;28;3350;-62
2024/03/17 12:19:37;;;;;;;;;;;;;;;;;;5039289;28;5003;-62
2024/03/17 12:22:04;;;;;;;;;;;;;;;;;;5043435;28;5017;-63
2024/03/17 12:24:30;;;;;;;;;;;;;;;;;;5058325;28;5671;-63
2024/03/17 12:26:57;;;;;;;;;;;;;;;;;;5036342;28;4942;-61
2024/03/17 12:29:27;;;;;;;;;;;;;;;;;;5044693;28;4946;-60
2024/03/17 12:31:53;;;;;;;;;;;;;;;;;;5046078;28;4849;-61
2024/03/17 12:34:19;;;;;;;;;;;;;;;;;;5047248;28;3407;-61
2024/03/17 12:36:44;;;;;;;;;;;;;;;;;;5041575;28;5095;-61
2024/03/17 12:39:11;;;;;;;;;;;;;;;;;;5038530;28;5073;-61
2024/03/17 12:41:36;;;;;;;;;;;;;;;;;;5038737;28;5168;-61
2024/03/17 12:44:03;;;;;;;;;;;;;;;;;;5042021;28;5051;-62
2024/03/17 12:46:28;;;;;;;;;;;;;;;;;;5041799;28;3667;-63
2024/03/17 12:48:59;;;;;;;;;;;;;;;;;;5038156;28;5014;-63
2024/03/17 12:51:25;;;;;;;;;;;;;;;;;;5052290;28;4462;-62
2024/03/17 12:53:50;;;;;;;;;;;;;;;;;;5046296;28;4961;-64
2024/03/17 13:01:52;;;;;;;;;;;;;;;;;;5051840;28;5082;-64
2024/03/17 13:04:18;;;;;;;;;;;;;;;;;;5038011;28;3583;-63
2024/03/17 13:06:43;;;;;;;;;;;;;;;;;;5049724;28;5114;-63
2024/03/17 13:09:10;;;;;;;;;;;;;;;;;;5031261;28;5122;-63
2024/03/17 13:11:35;;;;;;;;;;;;;;;;;;5021266;28;4613;-64
2024/03/17 13:14:00;;;;;;;;;;;;;;;;;;5022968;28;5131;-69
2024/03/17 13:16:26;;;;;;;;;;;;;;;;;;5009902;28;3451;-65
2024/03/17 13:18:51;;;;;;;;;;;;;;;;;;5024627;28;5039;-65
2024/03/17 13:21:17;;;;;;;;;;;;;;;;;;5025342;28;4902;-65
2024/03/17 13:23:42;;;;;;;;;;;;;;;;;;5023297;28;4732;-65
2024/03/17 13:26:08;;;;;;;;;;;;;;;;;;5019771;28;5182;-70
2024/03/17 13:28:33;;;;;;;;;;;;;;;;;;5015770;28;3514;-70
2024/03/17 13:30:58;;;;;;;;;;;;;;;;;;5018147;28;5238;-63
2024/03/17 13:33:24;;;;;;;;;;;;;;;;;;5039381;28;5039;-62
2024/03/17 13:35:49;;;;;;;;;;;;;;;;;;5017389;28;5091;-64
2024/03/17 13:38:15;;;;;;;;;;;;;;;;;;5037240;28;4787;-64
2024/03/17 13:40:42;;;;;;;;;;;;;;;;;;5031626;28;3484;-63
2024/03/17 13:43:08;;;;;;;;;;;;;;;;;;5032910;28;5036;-63
2024/03/17 13:45:43;;;;;;;;;;;;;;;;;;5006596;28;5059;-63
2024/03/17 13:48:10;;;;;;;;;;;;;;;;;;5027617;28;4763;-64
2024/03/17 13:50:35;;;;;;;;;;;;;;;;;;5022000;28;4880;-63
2024/03/17 13:53:03;;;;;;;;;;;;;;;;;;5017414;28;5350;-64
2024/03/17 13:55:28;;;;;;;;;;;;;;;;;;5032926;28;3309;-63
2024/03/17 13:57:54;;;;;;;;;;;;;;;;;;5025481;28;5134;-64
2024/03/17 14:00:21;;;;;;;;;;;;;;;;;;5025616;28;5178;-64
2024/03/17 14:02:46;;;;;;;;;;;;;;;;;;5023359;28;5134;-61
2024/03/17 14:05:12;;;;;;;;;;;;;;;;;;5025961;28;5092;-65
2024/03/17 14:07:37;;;;;;;;;;;;;;;;;;5009037;28;3555;-66
2024/03/17 14:10:03;;;;;;;;;;;;;;;;;;5035395;28;5042;-68
2024/03/17 14:12:28;;;;;;;;;;;;;;;;;;5030133;28;4724;-64
2024/03/17 14:14:53;;;;;;;;;;;;;;;;;;5043917;28;5099;-64
2024/03/17 14:17:19;;;;;;;;;;;;;;;;;;5040495;28;5029;-60
2024/03/17 14:19:44;;;;;;;;;;;;;;;;;;5044068;28;3440;-60
2024/03/17 14:22:09;;;;;;;;;;;;;;;;;;5034858;28;4974;-59
2024/03/17 14:24:35;;;;;;;;;;;;;;;;;;5042543;28;4541;-60
2024/03/17 14:27:00;;;;;;;;;;;;;;;;;;5045403;28;5160;-59
2024/03/17 14:29:26;;;;;;;;;;;;;;;;;;5041553;28;4537;-59
2024/03/17 14:31:51;;;;;;;;;;;;;;;;;;5047997;28;4586;-59
2024/03/17 14:34:17;;;;;;;;;;;;;;;;;;5054220;28;3502;-59
2024/03/17 14:36:42;;;;;;;;;;;;;;;;;;5053337;28;5063;-59
2024/03/17 14:39:07;;;;;;;;;;;;;;;;;;5047397;28;5828;-60
2024/03/17 14:41:33;;;;;;;;;;;;;;;;;;5043040;28;4555;-59
2024/03/17 14:44:00;;;;;;;;;;;;;;;;;;5044198;28;5038;-59
2024/03/17 14:46:25;;;;;;;;;;;;;;;;;;5045096;28;3343;-59
2024/03/17 14:48:51;;;;;;;;;;;;;;;;;;5045774;28;4974;-60
2024/03/17 14:51:17;;;;;;;;;;;;;;;;;;5051595;28;4963;-60
2024/03/17 14:53:47;;;;;;;;;;;;;;;;;;5047783;28;4613;-61
2024/03/17 14:56:16;;;;;;;;;;;;;;;;;;5045817;28;4716;-60
2024/03/17 14:58:41;;;;;;;;;;;;;;;;;;5058239;28;1655;-59
2024/03/17 15:01:09;;;;;;;;;;;;;;;;;;5052035;28;4637;-60
2024/03/17 15:03:34;;;;;;;;;;;;;;;;;;5050494;28;5085;-60
2024/03/17 15:06:00;;;;;;;;;;;;;;;;;;5056073;28;5068;-60
2024/03/17 15:08:25;;;;;;;;;;;;;;;;;;5046044;28;5669;-62
2024/03/17 15:10:51;;;;;;;;;;;;;;;;;;5073310;28;5111;-60
2024/03/17 15:13:17;;;;;;;;;;;;;;;;;;5046280;28;3373;-60
2024/03/17 15:15:44;;;;;;;;;;;;;;;;;;5050157;28;5165;-60
2024/03/17 15:18:11;;;;;;;;;;;;;;;;;;5053261;28;5078;-60
2024/03/17 15:20:37;;;;;;;;;;;;;;;;;;5057896;28;5089;-60
2024/03/17 15:23:02;;;;;;;;;;;;;;;;;;5052140;28;5545;-59
2024/03/17 15:25:28;;;;;;;;;;;;;;;;;;5052846;28;3215;-60
2024/03/17 15:27:53;;;;;;;;;;;;;;;;;;5051499;28;5012;-60
2024/03/17 15:30:19;;;;;;;;;;;;;;;;;;5044257;28;4923;-60
2024/03/17 15:32:47;;;;;;;;;;;;;;;;;;5034117;28;5085;-60
2024/03/17 15:35:13;;;;;;;;;;;;;;;;;;5057293;28;4913;-60
2024/03/17 15:37:39;;;;;;;;;;;;;;;;;;5059869;28;1295;-60
2024/03/17 15:40:04;;;;;;;;;;;;;;;;;;5051125;28;5328;-60
2024/03/17 15:42:30;;;;;;;;;;;;;;;;;;5051386;28;4468;-60
2024/03/17 15:44:55;;;;;;;;;;;;;;;;;;5059330;28;5215;-60
2024/03/17 15:47:20;;;;;;;;;;;;;;;;;;5067742;28;5294;-60
2024/03/17 15:49:46;;;;;;;;;;;;;;;;;;5052427;28;4544;-60
2024/03/17 15:52:12;;;;;;;;;;;;;;;;;;5042875;28;3363;-60
2024/03/17 15:54:37;;;;;;;;;;;;;;;;;;5062503;28;5859;-60
2024/03/17 15:57:02;;;;;;;;;;;;;;;;;;5038406;28;5346;-60
2024/03/17 15:59:28;;;;;;;;;;;;;;;;;;5061648;28;4960;-61
2024/03/17 16:01:53;;;;;;;;;;;;;;;;;;5045531;28;5095;-60
2024/03/17 16:04:24;;;;;;;;;;;;;;;;;;5043354;28;3304;-60
2024/03/17 16:06:49;;;;;;;;;;;;;;;;;;5058912;28;4850;-60
2024/03/17 16:09:17;;;;;;;;;;;;;;;;;;5022927;28;5064;-60
2024/03/17 16:11:42;;;;;;;;;;;;;;;;;;5020543;28;5348;-60
2024/03/17 16:14:09;;;;;;;;;;;;;;;;;;5021397;28;5246;-60
2024/03/17 16:16:34;;;;;;;;;;;;;;;;;;5027078;28;3333;-60
2024/03/17 16:19:00;;;;;;;;;;;;;;;;;;5041061;28;4582;-60
2024/03/17 16:21:26;;;;;;;;;;;;;;;;;;5024645;28;4616;-59
2024/03/17 16:24:14;;;;;;;;;;;;;;;;;;5025816;28;4692;-60
2024/03/17 16:26:42;;;;;;;;;;;;;;;;;;5038129;28;4736;-60
2024/03/17 16:29:14;;;;;;;;;;;;;;;;;;5027133;28;5264;-59
2024/03/17 16:31:39;;;;;;;;;;;;;;;;;;5026196;28;3272;-61
2024/03/17 16:34:07;;;;;;;;;;;;;;;;;;5007715;28;5210;-60
2024/03/17 16:36:33;;;;;;;;;;;;;;;;;;5024664;28;5202;-60
2024/03/17 16:38:59;;;;;;;;;;;;;;;;;;5024916;28;5113;-60
2024/03/17 16:41:24;;;;;;;;;;;;;;;;;;5024347;28;5229;-59
2024/03/17 16:44:00;;;;;;;;;;;;;;;;;;5027012;28;5060;-60
2024/03/17 16:46:26;;;;;;;;;;;;;;;;;;5024016;28;3320;-60
2024/03/17 16:48:51;;;;;;;;;;;;;;;;;;5027611;28;4956;-59
2024/03/17 16:51:18;;;;;;;;;;;;;;;;;;5024203;28;5069;-60
2024/03/17 16:53:45;;;;;;;;;;;;;;;;;;5027001;28;4904;-59
2024/03/17 16:56:10;;;;;;;;;;;;;;;;;;5010955;28;5100;-60
2024/03/17 16:58:35;;;;;;;;;;;;;;;;;;5027552;28;1742;-60
2024/03/17 17:01:01;;;;;;;;;;;;;;;;;;5026747;28;4961;-60
2024/03/17 17:03:26;;;;;;;;;;;;;;;;;;5027194;28;4488;-60